createdAt,value
2022-12-25T00:02:28.203Z,2.50
2022-12-25T00:04:55.843Z,2.63
2022-12-25T00:07:23.950Z,2.60
2022-12-25T00:09:51.589Z,2.50
2022-12-25T00:12:21.055Z,2.15
2022-12-25T00:14:48.697Z,2.47
2022-12-25T00:17:16.933Z,2.80
2022-12-25T00:19:44.419Z,3.20
2022-12-25T00:22:12.710Z,2.67
2022-12-25T00:24:40.644Z,2.65
2022-12-25T00:27:09.004Z,2.70
2022-12-25T00:29:38.207Z,2.97
2022-12-25T00:32:06.243Z,2.22
2022-12-25T00:34:33.956Z,2.88
2022-12-25T00:37:02.272Z,2.88
2022-12-25T00:39:29.774Z,2.67
2022-12-25T00:41:57.981Z,3.03
2022-12-25T00:44:25.532Z,3.38
2022-12-25T00:46:55.097Z,2.92
2022-12-25T00:49:23.722Z,2.65
2022-12-25T00:51:52.210Z,2.60
2022-12-25T00:54:20.737Z,2.45
2022-12-25T00:56:48.752Z,2.50
2022-12-25T00:59:16.395Z,2.40
2022-12-25T01:01:44.799Z,2.65
2022-12-25T01:04:14.061Z,2.95
2022-12-25T01:06:42.124Z,2.83
2022-12-25T01:09:09.602Z,2.70
2022-12-25T01:11:37.767Z,2.50
2022-12-25T01:14:05.296Z,2.65
2022-12-25T01:16:33.348Z,2.90
2022-12-25T01:19:01.062Z,3.08
2022-12-25T01:21:30.697Z,3.45
2022-12-25T01:23:58.643Z,2.80
2022-12-25T01:26:27.547Z,3.10
2022-12-25T01:28:55.437Z,3.08
2022-12-25T01:31:24.437Z,2.60
2022-12-25T01:33:52.021Z,3.00
2022-12-25T01:36:22.127Z,2.90
2022-12-25T01:38:52.361Z,3.45
2022-12-25T01:41:23.297Z,3.45
2022-12-25T01:44:07.557Z,3.53
2022-12-25T01:46:36.323Z,3.30
2022-12-25T01:49:07.405Z,3.30
2022-12-25T01:51:38.980Z,3.53
2022-12-25T01:54:12.465Z,3.65
2022-12-25T01:56:43.637Z,3.33
2022-12-25T01:59:13.758Z,3.00
2022-12-25T02:01:41.877Z,3.60
2022-12-25T02:04:19.048Z,3.42
2022-12-25T02:06:48.619Z,3.38
2022-12-25T02:09:18.648Z,3.45
2022-12-25T02:11:47.117Z,4.13
2022-12-25T02:14:14.884Z,3.55
2022-12-25T02:16:57.916Z,2.55
2022-12-25T02:19:37.786Z,3.05
2022-12-25T02:22:16.046Z,2.75
2022-12-25T02:24:56.346Z,3.25
2022-12-25T02:28:01.192Z,3.40
2022-12-25T02:30:36.171Z,3.40
2022-12-25T02:33:11.086Z,4.40
2022-12-25T02:35:38.717Z,4.35
2022-12-25T02:38:13.147Z,3.72
2022-12-25T02:40:45.471Z,2.83
2022-12-25T02:43:19.250Z,2.53
2022-12-25T02:45:52.235Z,2.78
2022-12-25T02:48:26.294Z,3.25
2022-12-25T02:50:55.843Z,5.68
2022-12-25T02:53:23.822Z,5.95
2022-12-25T02:55:53.155Z,5.07
2022-12-25T02:58:24.830Z,3.65
2022-12-25T03:00:59.392Z,3.67
2022-12-25T03:03:32.356Z,2.70
2022-12-25T03:08:34.861Z,2.75
2022-12-25T03:11:04.602Z,2.60
2022-12-25T03:13:39.941Z,2.15
2022-12-25T03:16:08.238Z,2.42
2022-12-25T03:18:36.185Z,2.10
2022-12-25T03:21:03.833Z,2.28
2022-12-25T03:23:34.822Z,2.42
2022-12-25T03:26:02.396Z,2.50
2022-12-25T03:28:30.439Z,2.28
2022-12-25T03:31:11.637Z,1.95
2022-12-25T03:34:09.049Z,2.78
2022-12-25T03:36:48.118Z,2.35
2022-12-25T03:39:26.839Z,2.90
2022-12-25T03:42:00.695Z,2.75
2022-12-25T03:44:37.041Z,2.42
2022-12-25T03:47:15.562Z,3.35
2022-12-25T03:52:16.373Z,2.30
2022-12-25T03:54:47.673Z,2.00
2022-12-25T03:57:15.559Z,2.40
2022-12-25T03:59:43.670Z,3.38
2022-12-25T04:02:13.018Z,3.25
2022-12-25T04:04:40.581Z,2.95
2022-12-25T04:07:08.553Z,3.00
2022-12-25T04:09:36.079Z,2.53
2022-12-25T04:12:04.620Z,2.47
2022-12-25T04:14:32.177Z,3.10
2022-12-25T04:17:00.133Z,2.60
2022-12-25T04:19:29.307Z,2.70
2022-12-25T04:21:57.331Z,2.75
2022-12-25T04:24:24.883Z,2.45
2022-12-25T04:26:53.326Z,2.25
2022-12-25T04:29:21.084Z,2.70
2022-12-25T04:31:50.933Z,3.03
2022-12-25T04:34:18.538Z,2.58
2022-12-25T04:36:48.109Z,2.40
2022-12-25T04:39:15.697Z,2.72
2022-12-25T04:41:43.524Z,2.40
2022-12-25T04:44:11.081Z,2.67
2022-12-25T04:46:39.458Z,3.45
2022-12-25T04:49:07.235Z,2.78
2022-12-25T04:51:36.960Z,3.45
2022-12-25T04:54:06.145Z,3.53
2022-12-25T04:56:35.039Z,3.33
2022-12-25T04:59:04.983Z,2.90
2022-12-25T05:01:32.984Z,2.47
2022-12-25T05:04:00.929Z,2.88
2022-12-25T05:06:28.845Z,2.90
2022-12-25T05:08:56.446Z,2.45
2022-12-25T05:11:25.781Z,3.13
2022-12-25T05:13:53.289Z,2.67
2022-12-25T05:16:21.511Z,2.60
2022-12-25T05:18:52.030Z,3.42
2022-12-25T05:21:20.670Z,2.85
2022-12-25T05:23:50.738Z,2.63
2022-12-25T05:26:20.770Z,3.03
2022-12-25T05:28:50.358Z,3.53
2022-12-25T05:31:19.182Z,3.63
2022-12-25T05:33:49.953Z,3.90
2022-12-25T05:36:18.722Z,3.58
2022-12-25T05:38:46.332Z,4.25
2022-12-25T05:41:14.198Z,5.07
2022-12-25T05:43:41.938Z,4.88
2022-12-25T05:46:13.314Z,4.15
2022-12-25T05:48:41.123Z,4.03
2022-12-25T05:51:11.447Z,4.45
2022-12-25T05:53:40.083Z,3.78
2022-12-25T05:56:09.305Z,3.45
2022-12-25T05:58:38.491Z,3.50
2022-12-25T06:01:13.121Z,2.78
2022-12-25T06:03:40.744Z,2.97
2022-12-25T06:06:08.883Z,2.78
2022-12-25T06:08:36.442Z,3.53
2022-12-25T06:11:05.472Z,2.88
2022-12-25T06:13:33.498Z,3.70
2022-12-25T06:16:04.151Z,3.00
2022-12-25T06:18:35.312Z,3.78
2022-12-25T06:21:07.178Z,3.38
2022-12-25T06:23:34.786Z,3.50
2022-12-25T06:26:04.538Z,4.38
2022-12-25T06:28:32.325Z,3.22
2022-12-25T06:31:05.296Z,3.28
2022-12-25T06:33:35.816Z,3.78
2022-12-25T06:36:08.854Z,3.65
2022-12-25T06:38:36.701Z,2.80
2022-12-25T06:41:06.261Z,3.10
2022-12-25T06:43:33.844Z,4.03
2022-12-25T06:46:06.429Z,4.05
2022-12-25T06:48:36.721Z,3.88
2022-12-25T06:51:06.065Z,3.35
2022-12-25T06:53:40.607Z,3.17
2022-12-25T06:56:11.395Z,3.13
2022-12-25T06:58:39.162Z,4.60
2022-12-25T07:01:08.867Z,4.85
2022-12-25T07:03:37.765Z,5.15
2022-12-25T07:06:06.421Z,5.45
2022-12-25T07:08:34.181Z,5.47
2022-12-25T07:11:04.212Z,5.72
2022-12-25T07:13:31.751Z,5.57
2022-12-25T07:16:01.721Z,5.55
2022-12-25T07:18:30.071Z,5.35
2022-12-25T07:20:59.499Z,6.40
2022-12-25T07:23:27.520Z,5.55
2022-12-25T07:25:56.477Z,6.40
2022-12-25T07:28:24.218Z,6.72
2022-12-25T07:30:52.227Z,6.65
2022-12-25T07:33:20.222Z,7.95
2022-12-25T07:35:48.267Z,7.78
2022-12-25T07:38:17.449Z,7.60
2022-12-25T07:40:46.292Z,7.30
2022-12-25T07:43:14.033Z,6.82
2022-12-25T07:45:42.137Z,6.63
2022-12-25T07:48:16.280Z,6.97
2022-12-25T07:50:44.691Z,6.55
2022-12-25T07:53:12.181Z,7.30
2022-12-25T07:55:41.711Z,7.68
2022-12-25T07:58:09.215Z,8.65
2022-12-25T08:00:37.188Z,7.60
2022-12-25T08:03:04.927Z,7.82
2022-12-25T08:05:33.232Z,6.30
2022-12-25T08:08:01.002Z,6.00
2022-12-25T08:10:29.088Z,5.85
2022-12-25T08:12:58.033Z,5.82
2022-12-25T08:15:25.907Z,5.45
2022-12-25T08:17:53.472Z,5.07
2022-12-25T08:20:21.340Z,5.75
2022-12-25T08:22:49.029Z,5.38
2022-12-25T08:25:16.926Z,5.60
2022-12-25T08:27:44.476Z,5.50
2022-12-25T08:30:14.368Z,5.25
2022-12-25T08:32:42.014Z,5.65
2022-12-25T08:35:10.384Z,5.35
2022-12-25T08:37:37.882Z,5.22
2022-12-25T08:40:07.149Z,6.07
2022-12-25T08:42:34.711Z,5.80
2022-12-25T08:45:03.109Z,5.88
2022-12-25T08:47:32.162Z,5.82
2022-12-25T08:50:00.097Z,5.78
2022-12-25T08:52:28.545Z,5.07
2022-12-25T08:54:56.407Z,5.70
2022-12-25T08:57:24.019Z,5.30
2022-12-25T08:59:52.038Z,5.32
2022-12-25T09:02:19.730Z,4.43
2022-12-25T09:04:49.440Z,4.75
2022-12-25T09:07:16.930Z,5.20
2022-12-25T09:09:44.938Z,4.82
2022-12-25T09:12:12.442Z,4.55
2022-12-25T09:14:40.431Z,4.68
2022-12-25T09:17:08.236Z,4.60
2022-12-25T09:19:36.319Z,5.40
2022-12-25T09:22:05.548Z,4.97
2022-12-25T09:24:33.516Z,5.18
2022-12-25T09:27:01.014Z,5.18
2022-12-25T09:29:29.170Z,5.82
2022-12-25T09:31:56.725Z,5.70
2022-12-25T09:34:24.716Z,6.07
2022-12-25T09:36:52.318Z,5.38
2022-12-25T09:39:21.681Z,6.38
2022-12-25T09:41:55.728Z,6.18
2022-12-25T09:44:27.887Z,8.32
2022-12-25T09:47:01.658Z,7.82
2022-12-25T09:49:37.753Z,6.35
2022-12-25T09:52:10.037Z,5.20
2022-12-25T09:54:46.898Z,6.60
2022-12-25T09:57:15.257Z,5.82
2022-12-25T09:59:44.331Z,7.50
2022-12-25T10:02:47.007Z,9.00
2022-12-25T10:05:30.220Z,7.32
2022-12-25T10:08:06.946Z,7.32
2022-12-25T10:10:49.680Z,5.57
2022-12-25T10:13:53.283Z,5.50
2022-12-25T10:16:34.296Z,5.20
2022-12-25T10:19:15.593Z,6.18
2022-12-25T10:21:43.745Z,5.53
2022-12-25T10:24:20.566Z,4.78
2022-12-25T10:26:54.720Z,5.18
2022-12-25T10:29:22.385Z,5.60
2022-12-25T10:31:54.793Z,4.90
2022-12-25T10:34:23.327Z,5.45
2022-12-25T10:36:51.555Z,6.45
2022-12-25T10:39:22.681Z,6.57
2022-12-25T10:42:05.478Z,5.95
2022-12-25T10:44:33.136Z,5.40
2022-12-25T10:47:03.219Z,5.18
2022-12-25T10:49:33.147Z,4.68
2022-12-25T10:52:01.555Z,4.15
2022-12-25T10:54:31.222Z,4.05
2022-12-25T10:57:02.563Z,4.80
2022-12-25T10:59:34.894Z,5.18
2022-12-25T11:02:11.601Z,4.88
2022-12-25T11:04:39.401Z,4.85
2022-12-25T11:07:14.091Z,4.40
2022-12-25T11:09:50.114Z,4.20
2022-12-25T11:12:21.887Z,5.35
2022-12-25T11:14:54.266Z,5.20
2022-12-25T11:17:24.437Z,4.93
2022-12-25T11:19:53.368Z,4.60
2022-12-25T11:22:21.657Z,3.95
2022-12-25T11:24:51.399Z,3.83
2022-12-25T11:27:25.280Z,4.03
2022-12-25T11:29:57.831Z,5.05
2022-12-25T11:32:33.369Z,4.15
2022-12-25T11:35:02.733Z,4.70
2022-12-25T11:37:35.683Z,4.53
2022-12-25T11:40:04.011Z,4.10
2022-12-25T11:42:36.723Z,3.58
2022-12-25T11:45:10.776Z,3.50
2022-12-25T11:47:44.571Z,3.92
2022-12-25T11:50:22.180Z,4.80
2022-12-25T11:52:52.048Z,3.03
2022-12-25T11:55:25.961Z,3.70
2022-12-25T11:57:59.068Z,4.70
2022-12-25T12:00:29.747Z,4.60
2022-12-25T12:03:02.391Z,3.90
2022-12-25T12:05:35.560Z,4.45
2022-12-25T12:08:05.934Z,3.90
2022-12-25T12:10:42.781Z,4.88
2022-12-25T12:13:25.222Z,3.97
2022-12-25T12:15:52.853Z,4.40
2022-12-25T12:18:23.091Z,4.18
2022-12-25T12:21:05.800Z,4.68
2022-12-25T12:23:36.904Z,3.72
2022-12-25T12:26:04.950Z,3.65
2022-12-25T12:28:44.199Z,3.80
2022-12-25T12:31:12.300Z,3.67
2022-12-25T12:33:44.078Z,3.78
2022-12-25T12:36:13.916Z,5.03
2022-12-25T12:38:44.185Z,4.18
2022-12-25T12:41:13.743Z,4.43
2022-12-25T12:43:46.616Z,4.93
2022-12-25T12:46:26.193Z,4.65
2022-12-25T12:49:09.793Z,4.47
2022-12-25T12:51:38.056Z,4.47
2022-12-25T12:54:19.855Z,4.45
2022-12-25T12:56:59.072Z,4.88
2022-12-25T12:59:37.202Z,4.43
2022-12-25T13:02:22.537Z,4.43
2022-12-25T13:04:56.319Z,4.88
2022-12-25T13:07:48.691Z,5.55
2022-12-25T13:10:25.389Z,4.78
2022-12-25T13:12:55.201Z,3.72
2022-12-25T13:15:28.551Z,3.35
2022-12-25T13:17:59.466Z,3.67
2022-12-25T13:20:40.145Z,3.67
2022-12-25T13:23:24.829Z,4.10
2022-12-25T13:25:57.535Z,4.40
2022-12-25T13:28:26.629Z,4.68
2022-12-25T13:31:02.442Z,3.90
2022-12-25T13:33:30.557Z,4.43
2022-12-25T13:35:58.715Z,4.55
2022-12-25T13:38:31.144Z,4.82
2022-12-25T13:40:59.509Z,4.90
2022-12-25T13:43:27.099Z,4.47
2022-12-25T13:45:57.131Z,4.97
2022-12-25T13:48:24.719Z,4.53
2022-12-25T13:50:57.549Z,4.75
2022-12-25T13:55:55.209Z,4.68
2022-12-25T13:58:27.445Z,3.95
2022-12-25T14:00:58.753Z,4.57
2022-12-25T14:03:31.624Z,4.13
2022-12-25T14:06:01.709Z,4.85
2022-12-25T14:08:31.888Z,4.60
2022-12-25T14:11:04.514Z,4.45
2022-12-25T14:13:35.880Z,4.53
2022-12-25T14:16:06.501Z,5.03
2022-12-25T14:18:34.398Z,5.03
2022-12-25T14:21:04.777Z,4.47
2022-12-25T14:23:41.805Z,4.68
2022-12-25T14:26:16.376Z,4.45
2022-12-25T14:28:47.951Z,5.65
2022-12-25T14:31:21.592Z,5.10
2022-12-25T14:33:50.158Z,4.90
2022-12-25T14:36:19.081Z,4.88
2022-12-25T14:38:57.134Z,5.75
2022-12-25T14:41:29.799Z,5.20
2022-12-25T14:43:57.397Z,6.80
2022-12-25T14:46:29.080Z,5.13
2022-12-25T14:49:01.247Z,6.03
2022-12-25T14:51:30.804Z,5.22
2022-12-25T14:54:01.910Z,6.63
2022-12-25T14:56:32.094Z,6.50
2022-12-25T14:59:00.307Z,6.35
2022-12-25T15:01:33.779Z,7.25
2022-12-25T15:04:07.750Z,6.18
2022-12-25T15:06:37.101Z,7.20
2022-12-25T15:09:06.755Z,8.05
2022-12-25T15:11:34.771Z,6.05
2022-12-25T15:14:05.276Z,6.70
2022-12-25T15:16:42.070Z,8.18
2022-12-25T15:19:13.088Z,7.85
2022-12-25T15:21:41.115Z,6.95
2022-12-25T15:24:12.719Z,6.25
2022-12-25T15:26:41.039Z,7.13
2022-12-25T15:29:09.099Z,6.72
2022-12-25T15:31:39.709Z,6.25
2022-12-25T15:34:15.549Z,6.13
2022-12-25T15:36:43.813Z,6.55
2022-12-25T15:39:11.305Z,7.30
2022-12-25T15:41:40.229Z,6.07
2022-12-25T15:44:08.284Z,7.30
2022-12-25T15:46:36.299Z,7.20
2022-12-25T15:49:05.725Z,6.93
2022-12-25T15:51:34.120Z,7.03
2022-12-25T15:54:01.636Z,7.70
2022-12-25T15:56:30.484Z,8.80
2022-12-25T15:58:57.960Z,7.68
2022-12-25T16:01:27.684Z,7.30
2022-12-25T16:03:55.222Z,7.75
2022-12-25T16:06:26.278Z,7.10
2022-12-25T16:08:53.718Z,8.23
2022-12-25T16:11:21.626Z,8.27
2022-12-25T16:13:49.173Z,7.65
2022-12-25T16:16:17.075Z,7.90
2022-12-25T16:18:47.772Z,8.13
2022-12-25T16:21:19.043Z,8.27
2022-12-25T16:23:48.415Z,8.20
2022-12-25T16:26:16.845Z,7.88
2022-12-25T16:28:44.352Z,7.78
2022-12-25T16:31:12.490Z,8.18
2022-12-25T16:33:40.062Z,8.27
2022-12-25T16:36:09.000Z,8.05
2022-12-25T16:38:36.628Z,7.82
2022-12-25T16:41:06.174Z,8.10
2022-12-25T16:43:33.714Z,8.60
2022-12-25T16:46:01.845Z,8.52
2022-12-25T16:48:29.640Z,8.25
2022-12-25T16:50:57.571Z,8.95
2022-12-25T16:53:25.184Z,9.40
2022-12-25T16:55:53.251Z,7.90
2022-12-25T16:58:25.251Z,8.23
2022-12-25T17:00:53.816Z,9.90
2022-12-25T17:03:21.379Z,8.30
2022-12-25T17:05:49.661Z,9.07
2022-12-25T17:08:17.402Z,9.55
2022-12-25T17:10:45.401Z,7.90
2022-12-25T17:13:12.950Z,9.02
2022-12-25T17:15:48.359Z,9.98
2022-12-25T17:18:17.925Z,10.60
2022-12-25T17:20:50.504Z,10.98
2022-12-25T17:23:18.062Z,10.07
2022-12-25T17:25:46.312Z,11.23
2022-12-25T17:28:14.155Z,11.70
2022-12-25T17:30:43.678Z,11.45
2022-12-25T17:33:13.872Z,11.10
2022-12-25T17:35:41.773Z,10.32
2022-12-25T17:38:09.393Z,10.85
2022-12-25T17:40:37.346Z,11.25
2022-12-25T17:43:04.954Z,11.90
2022-12-25T17:45:32.840Z,12.93
2022-12-25T17:48:01.958Z,11.00
2022-12-25T17:50:31.828Z,11.05
2022-12-25T17:53:02.014Z,11.43
2022-12-25T17:55:30.118Z,10.93
2022-12-25T17:57:57.979Z,12.18
2022-12-25T18:00:25.943Z,12.23
2022-12-25T18:02:53.934Z,11.48
2022-12-25T18:05:23.869Z,11.10
2022-12-25T18:07:51.525Z,11.00
2022-12-25T18:10:19.710Z,9.63
2022-12-25T18:12:47.351Z,9.05
2022-12-25T18:15:15.357Z,8.88
2022-12-25T18:17:42.951Z,7.38
2022-12-25T18:20:11.422Z,6.97
2022-12-25T18:22:40.649Z,7.40
2022-12-25T18:25:09.443Z,6.75
2022-12-25T18:27:37.043Z,5.53
2022-12-25T18:30:06.263Z,5.65
2022-12-25T18:32:34.037Z,6.13
2022-12-25T18:35:02.434Z,5.60
2022-12-25T18:37:33.155Z,4.60
2022-12-25T18:40:08.873Z,6.38
2022-12-25T18:42:36.690Z,5.40
2022-12-25T18:45:05.509Z,5.85
2022-12-25T18:47:33.740Z,5.32
2022-12-25T18:50:02.085Z,5.40
2022-12-25T18:52:47.436Z,5.70
2022-12-25T18:55:19.833Z,5.30
2022-12-25T18:57:48.057Z,5.75
2022-12-25T19:00:16.604Z,5.25
2022-12-25T19:02:44.359Z,5.20
2022-12-25T19:05:12.547Z,6.35
2022-12-25T19:07:40.357Z,4.13
2022-12-25T19:10:09.381Z,4.97
2022-12-25T19:12:38.627Z,4.80
2022-12-25T19:15:07.554Z,5.15
2022-12-25T19:17:35.193Z,4.95
2022-12-25T19:20:03.451Z,5.35
2022-12-25T19:22:31.329Z,5.40
2022-12-25T19:24:59.295Z,5.05
2022-12-25T19:27:26.991Z,5.07
2022-12-25T19:29:56.508Z,4.28
2022-12-25T19:32:24.105Z,5.18
2022-12-25T19:34:52.039Z,5.03
2022-12-25T19:37:19.585Z,5.18
2022-12-25T19:39:47.738Z,5.00
2022-12-25T19:42:16.354Z,5.03
2022-12-25T19:44:44.507Z,4.47
2022-12-25T19:47:13.702Z,5.18
2022-12-25T19:49:43.861Z,4.70
2022-12-25T19:52:12.838Z,4.90
2022-12-25T19:54:40.764Z,6.22
2022-12-25T19:57:08.361Z,5.07
2022-12-25T19:59:36.607Z,6.82
2022-12-25T20:02:04.279Z,6.10
2022-12-25T20:04:33.828Z,6.03
2022-12-25T20:07:01.550Z,5.35
2022-12-25T20:09:29.582Z,5.55
2022-12-25T20:11:57.470Z,5.32
2022-12-25T20:14:25.772Z,5.35
2022-12-25T20:16:53.580Z,6.53
2022-12-25T20:19:21.730Z,5.43
2022-12-25T20:21:50.842Z,5.00
2022-12-25T20:24:18.795Z,4.60
2022-12-25T20:26:48.036Z,4.28
2022-12-25T20:29:17.227Z,4.72
2022-12-25T20:31:44.853Z,5.63
2022-12-25T20:34:12.932Z,5.68
2022-12-25T20:36:40.677Z,5.47
2022-12-25T20:39:12.615Z,4.93
2022-12-25T20:41:40.852Z,5.57
2022-12-25T20:44:09.622Z,5.32
2022-12-25T20:46:37.683Z,6.05
2022-12-25T20:49:05.805Z,5.10
2022-12-25T20:51:33.662Z,7.03
2022-12-25T20:54:06.200Z,5.25
2022-12-25T20:56:35.557Z,5.85
2022-12-25T20:59:03.642Z,5.50
2022-12-25T21:01:31.585Z,5.50
2022-12-25T21:04:00.025Z,5.97
2022-12-25T21:06:27.713Z,5.75
2022-12-25T21:08:55.712Z,5.47
2022-12-25T21:11:23.413Z,5.55
2022-12-25T21:13:53.204Z,6.07
2022-12-25T21:16:22.598Z,5.93
2022-12-25T21:18:52.622Z,5.55
2022-12-25T21:21:21.304Z,6.43
2022-12-25T21:23:49.265Z,5.60
2022-12-25T21:26:18.520Z,6.57
2022-12-25T21:28:49.136Z,6.80
2022-12-25T21:31:19.852Z,8.75
2022-12-25T21:33:47.945Z,8.05
2022-12-25T21:36:15.582Z,7.05
2022-12-25T21:38:43.603Z,8.30
2022-12-25T21:41:12.591Z,8.50
2022-12-25T21:43:41.483Z,7.43
2022-12-25T21:46:12.669Z,8.70
2022-12-25T21:48:42.794Z,7.63
2022-12-25T21:51:14.085Z,7.32
2022-12-25T21:53:45.264Z,7.18
2022-12-25T21:56:12.840Z,7.07
2022-12-25T21:58:40.857Z,7.75
2022-12-25T22:01:09.161Z,8.43
2022-12-25T22:03:37.933Z,8.25
2022-12-25T22:06:10.024Z,8.35
2022-12-25T22:11:05.484Z,8.02
2022-12-25T22:13:33.397Z,7.85
2022-12-25T22:16:04.003Z,8.73
2022-12-25T22:18:31.998Z,7.32
2022-12-25T22:20:59.508Z,7.43
2022-12-25T22:23:28.904Z,8.43
2022-12-25T22:25:56.365Z,7.63
2022-12-25T22:28:24.425Z,6.60
2022-12-25T22:30:52.059Z,8.82
2022-12-25T22:33:20.115Z,8.07
2022-12-25T22:35:47.599Z,7.50
2022-12-25T22:38:15.475Z,8.05
2022-12-25T22:40:44.482Z,8.48
2022-12-25T22:43:12.496Z,7.70
2022-12-25T22:45:40.012Z,8.75
2022-12-25T22:48:08.270Z,8.55
2022-12-25T22:50:35.718Z,8.23
2022-12-25T22:53:06.823Z,8.38
2022-12-25T22:55:34.417Z,8.00
2022-12-25T22:58:03.840Z,8.10
2022-12-25T23:00:31.529Z,7.78
2022-12-25T23:02:59.906Z,7.90
2022-12-25T23:05:27.693Z,8.93
2022-12-25T23:07:55.753Z,8.13
2022-12-25T23:10:23.473Z,7.80
2022-12-25T23:12:51.431Z,7.80
2022-12-25T23:15:21.181Z,8.18
2022-12-25T23:17:49.061Z,7.57
2022-12-25T23:20:16.607Z,9.20
2022-12-25T23:22:44.996Z,8.48
2022-12-25T23:25:15.483Z,8.77
2022-12-25T23:27:43.811Z,8.52
2022-12-25T23:30:13.478Z,9.18
2022-12-25T23:32:44.085Z,7.75
2022-12-25T23:35:12.391Z,7.85
2022-12-25T23:37:40.628Z,8.05
2022-12-25T23:40:09.917Z,8.20
2022-12-25T23:42:38.002Z,7.95
2022-12-25T23:45:06.333Z,8.13
2022-12-25T23:47:34.173Z,8.05
2022-12-25T23:50:03.551Z,7.20
2022-12-25T23:52:31.465Z,8.00
2022-12-25T23:54:58.994Z,7.80
2022-12-25T23:57:27.036Z,7.35
2022-12-25T23:59:54.570Z,6.85
